sensor_id;sensor_type;location;lat;lon;timestamp;temperature;humidity
22769;DHT22;13001;51.968;5.918;2023-07-29T14:44:59;23.40;78.60
22769;DHT22;13001;51.968;5.918;2023-07-29T14:47:26;26.90;76.80
22769;DHT22;13001;51.968;5.918;2023-07-29T14:49:54;26.60;76.80
22769;DHT22;13001;51.968;5.918;2023-07-29T14:52:21;26.60;76.50
22769;DHT22;13001;51.968;5.918;2023-07-29T14:54:49;26.60;75.80
22769;DHT22;13001;51.968;5.918;2023-07-29T14:57:17;26.50;76.50
22769;DHT22;13001;51.968;5.918;2023-07-29T14:59:45;26.30;76.40
22769;DHT22;13001;51.968;5.918;2023-07-29T15:02:12;26.20;76.20
22769;DHT22;13001;51.968;5.918;2023-07-29T15:04:43;26.00;77.10
22769;DHT22;13001;51.968;5.918;2023-07-29T15:07:10;26.00;77.50
22769;DHT22;13001;51.968;5.918;2023-07-29T15:09:38;26.10;77.50
22769;DHT22;13001;51.968;5.918;2023-07-29T15:12:06;26.10;77.20
22769;DHT22;13001;51.968;5.918;2023-07-29T15:14:34;26.10;77.50
22769;DHT22;13001;51.968;5.918;2023-07-29T15:17:01;26.10;78.20
22769;DHT22;13001;51.968;5.918;2023-07-29T15:19:32;26.10;78.10
22769;DHT22;13001;51.968;5.918;2023-07-29T15:22:06;26.00;77.30
22769;DHT22;13001;51.968;5.918;2023-07-29T15:24:39;25.90;76.40
22769;DHT22;13001;51.968;5.918;2023-07-29T15:27:09;25.70;76.50
22769;DHT22;13001;51.968;5.918;2023-07-29T15:29:37;25.60;76.90
22769;DHT22;13001;51.968;5.918;2023-07-29T15:32:08;25.70;77.00
22769;DHT22;13001;51.968;5.918;2023-07-29T15:34:35;25.90;77.10
22769;DHT22;13001;51.968;5.918;2023-07-29T15:37:04;26.00;76.00
22769;DHT22;13001;51.968;5.918;2023-07-29T15:39:32;26.00;76.10
22769;DHT22;13001;51.968;5.918;2023-07-29T15:41:59;26.00;75.40
22769;DHT22;13001;51.968;5.918;2023-07-29T15:44:27;25.80;75.70
22769;DHT22;13001;51.968;5.918;2023-07-29T15:46:54;25.70;76.30
22769;DHT22;13001;51.968;5.918;2023-07-29T15:49:23;25.70;76.70
22769;DHT22;13001;51.968;5.918;2023-07-29T15:51:52;25.70;76.70
22769;DHT22;13001;51.968;5.918;2023-07-29T15:54:20;25.80;76.80
22769;DHT22;13001;51.968;5.918;2023-07-29T15:56:47;25.90;76.20
22769;DHT22;13001;51.968;5.918;2023-07-29T15:59:15;25.90;75.50
22769;DHT22;13001;51.968;5.918;2023-07-29T16:01:42;26.00;75.40
22769;DHT22;13001;51.968;5.918;2023-07-29T16:04:11;26.10;75.30
22769;DHT22;13001;51.968;5.918;2023-07-29T16:06:42;26.20;75.90
22769;DHT22;13001;51.968;5.918;2023-07-29T16:09:11;26.20;76.20
22769;DHT22;13001;51.968;5.918;2023-07-29T16:11:39;26.20;76.40
22769;DHT22;13001;51.968;5.918;2023-07-29T16:14:06;26.30;75.60
22769;DHT22;13001;51.968;5.918;2023-07-29T16:16:34;26.30;75.50
22769;DHT22;13001;51.968;5.918;2023-07-29T16:19:01;26.30;75.20
22769;DHT22;13001;51.968;5.918;2023-07-29T16:21:29;26.20;74.80
22769;DHT22;13001;51.968;5.918;2023-07-29T16:23:56;26.00;74.70
22769;DHT22;13001;51.968;5.918;2023-07-29T16:26:24;25.90;75.10
22769;DHT22;13001;51.968;5.918;2023-07-29T16:28:51;25.70;75.70
22769;DHT22;13001;51.968;5.918;2023-07-29T16:31:19;25.50;76.20
22769;DHT22;13001;51.968;5.918;2023-07-29T16:33:50;25.30;77.00
22769;DHT22;13001;51.968;5.918;2023-07-29T16:36:20;25.10;78.30
